sensor_id;sensor_type;location;lat;lon;timestamp;P1;durP1;ratioP1;P2;durP2;ratioP2
65535;SDS011;52145;49.342;9.116;2023-09-30T08:01:32;7.68;;;4.00;;
65535;SDS011;52145;49.342;9.116;2023-09-30T08:03:58;11.38;;;4.50;;
65535;SDS011;52145;49.342;9.116;2023-09-30T08:06:24;11.15;;;4.20;;
65535;SDS011;52145;49.342;9.116;2023-09-30T08:08:50;8.35;;;3.83;;
65535;SDS011;52145;49.342;9.116;2023-09-30T08:11:17;7.85;;;4.13;;
65535;SDS011;52145;49.342;9.116;2023-09-30T08:13:45;10.27;;;3.97;;
65535;SDS011;52145;49.342;9.116;2023-09-30T08:16:11;11.38;;;4.30;;
65535;SDS011;52145;49.342;9.116;2023-09-30T08:18:38;11.75;;;4.18;;
65535;SDS011;52145;49.342;9.116;2023-09-30T08:21:04;9.63;;;4.43;;
65535;SDS011;52145;49.342;9.116;2023-09-30T08:23:30;7.72;;;3.53;;
65535;SDS011;52145;49.342;9.116;2023-09-30T08:25:59;8.93;;;4.25;;
65535;SDS011;52145;49.342;9.116;2023-09-30T08:28:25;10.35;;;4.38;;
65535;SDS011;52145;49.342;9.116;2023-09-30T08:30:51;9.32;;;4.40;;
65535;SDS011;52145;49.342;9.116;2023-09-30T08:33:19;8.73;;;4.68;;
65535;SDS011;52145;49.342;9.116;2023-09-30T08:35:45;7.88;;;3.83;;
65535;SDS011;52145;49.342;9.116;2023-09-30T08:38:11;9.50;;;4.63;;
65535;SDS011;52145;49.342;9.116;2023-09-30T08:40:37;10.75;;;4.43;;
65535;SDS011;52145;49.342;9.116;2023-09-30T08:43:03;11.77;;;4.93;;
65535;SDS011;52145;49.342;9.116;2023-09-30T08:45:30;11.93;;;4.40;;
65535;SDS011;52145;49.342;9.116;2023-09-30T08:47:59;11.80;;;4.30;;
65535;SDS011;52145;49.342;9.116;2023-09-30T08:50:30;8.52;;;3.78;;
65535;SDS011;52145;49.342;9.116;2023-09-30T08:52:56;10.32;;;4.45;;
65535;SDS011;52145;49.342;9.116;2023-09-30T08:55:22;11.18;;;4.43;;
65535;SDS011;52145;49.342;9.116;2023-09-30T08:57:50;12.35;;;4.28;;
65535;SDS011;52145;49.342;9.116;2023-09-30T09:00:16;7.15;;;3.85;;
65535;SDS011;52145;49.342;9.116;2023-09-30T09:02:42;9.75;;;4.25;;
65535;SDS011;52145;49.342;9.116;2023-09-30T09:05:08;8.82;;;3.60;;
65535;SDS011;52145;49.342;9.116;2023-09-30T09:07:34;7.38;;;3.47;;
65535;SDS011;52145;49.342;9.116;2023-09-30T09:10:04;7.30;;;3.38;;
65535;SDS011;52145;49.342;9.116;2023-09-30T09:12:34;12.85;;;4.20;;
65535;SDS011;52145;49.342;9.116;2023-09-30T09:15:00;9.30;;;4.10;;
65535;SDS011;52145;49.342;9.116;2023-09-30T09:17:43;8.95;;;3.83;;
65535;SDS011;52145;49.342;9.116;2023-09-30T09:20:10;6.05;;;3.42;;
65535;SDS011;52145;49.342;9.116;2023-09-30T09:22:42;9.15;;;3.83;;
65535;SDS011;52145;49.342;9.116;2023-09-30T09:25:09;9.02;;;4.20;;
65535;SDS011;52145;49.342;9.116;2023-09-30T09:27:35;9.05;;;4.03;;
65535;SDS011;52145;49.342;9.116;2023-09-30T09:33:00;10.57;;;3.78;;
65535;SDS011;52145;49.342;9.116;2023-09-30T09:35:27;9.80;;;4.45;;
65535;SDS011;52145;49.342;9.116;2023-09-30T09:37:58;8.80;;;4.00;;
65535;SDS011;52145;49.342;9.116;2023-09-30T09:40:25;12.18;;;4.57;;
65535;SDS011;52145;49.342;9.116;2023-09-30T09:42:52;7.78;;;3.55;;
65535;SDS011;52145;49.342;9.116;2023-09-30T09:45:20;9.43;;;3.95;;
65535;SDS011;52145;49.342;9.116;2023-09-30T09:47:48;10.38;;;4.20;;
65535;SDS011;52145;49.342;9.116;2023-09-30T09:50:14;9.25;;;3.55;;
65535;SDS011;52145;49.342;9.116;2023-09-30T09:52:41;7.95;;;4.45;;
65535;SDS011;52145;49.342;9.116;2023-09-30T09:55:08;9.80;;;4.03;;
65535;SDS011;52145;49.342;9.116;2023-09-30T09:57:35;8.90;;;3.78;;
65535;SDS011;52145;49.342;9.116;2023-09-30T10:00:02;7.05;;;2.95;;
65535;SDS011;52145;49.342;9.116;2023-09-30T10:02:30;8.57;;;3.50;;
65535;SDS011;52145;49.342;9.116;2023-09-30T10:04:58;8.95;;;3.50;;
65535;SDS011;52145;49.342;9.116;2023-09-30T10:07:30;10.20;;;3.67;;
65535;SDS011;52145;49.342;9.116;2023-09-30T10:09:58;9.85;;;3.75;;
65535;SDS011;52145;49.342;9.116;2023-09-30T10:12:26;9.57;;;3.47;;
65535;SDS011;52145;49.342;9.116;2023-09-30T10:14:52;10.63;;;3.58;;
65535;SDS011;52145;49.342;9.116;2023-09-30T10:17:18;7.80;;;3.60;;
65535;SDS011;52145;49.342;9.116;2023-09-30T10:20:03;7.18;;;3.75;;
65535;SDS011;52145;49.342;9.116;2023-09-30T10:22:32;9.68;;;3.58;;
65535;SDS011;52145;49.342;9.116;2023-09-30T10:24:59;8.48;;;3.50;;
65535;SDS011;52145;49.342;9.116;2023-09-30T10:37:42;9.73;;;4.07;;
65535;SDS011;52145;49.342;9.116;2023-09-30T10:40:08;9.40;;;3.83;;
65535;SDS011;52145;49.342;9.116;2023-09-30T10:42:47;10.65;;;4.55;;
65535;SDS011;52145;49.342;9.116;2023-09-30T10:50:51;10.52;;;4.20;;
65535;SDS011;52145;49.342;9.116;2023-09-30T10:53:18;11.85;;;4.55;;
65535;SDS011;52145;49.342;9.116;2023-09-30T10:55:45;8.15;;;3.65;;
65535;SDS011;52145;49.342;9.116;2023-09-30T10:58:14;10.63;;;4.40;;
65535;SDS011;52145;49.342;9.116;2023-09-30T11:00:51;9.52;;;4.05;;
65535;SDS011;52145;49.342;9.116;2023-09-30T11:03:19;10.30;;;4.63;;
65535;SDS011;52145;49.342;9.116;2023-09-30T11:05:47;8.65;;;3.97;;
65535;SDS011;52145;49.342;9.116;2023-09-30T11:08:13;12.05;;;4.40;;
65535;SDS011;52145;49.342;9.116;2023-09-30T11:10:47;8.75;;;4.05;;
65535;SDS011;52145;49.342;9.116;2023-09-30T11:13:13;11.27;;;4.80;;
65535;SDS011;52145;49.342;9.116;2023-09-30T11:15:40;10.25;;;4.57;;
65535;SDS011;52145;49.342;9.116;2023-09-30T11:18:13;8.63;;;4.18;;
65535;SDS011;52145;49.342;9.116;2023-09-30T11:20:39;9.50;;;4.22;;
65535;SDS011;52145;49.342;9.116;2023-09-30T11:23:06;10.02;;;4.22;;
65535;SDS011;52145;49.342;9.116;2023-09-30T11:25:35;7.85;;;3.70;;
65535;SDS011;52145;49.342;9.116;2023-09-30T11:28:12;9.25;;;3.92;;
65535;SDS011;52145;49.342;9.116;2023-09-30T11:30:52;8.40;;;4.75;;
65535;SDS011;52145;49.342;9.116;2023-09-30T11:33:18;8.63;;;4.13;;
65535;SDS011;52145;49.342;9.116;2023-09-30T11:38:29;10.05;;;5.10;;
65535;SDS011;52145;49.342;9.116;2023-09-30T11:43:25;7.95;;;4.30;;
65535;SDS011;52145;49.342;9.116;2023-09-30T11:45:51;8.50;;;4.43;;
65535;SDS011;52145;49.342;9.116;2023-09-30T11:48:17;8.63;;;4.55;;
65535;SDS011;52145;49.342;9.116;2023-09-30T11:50:45;8.98;;;4.18;;
65535;SDS011;52145;49.342;9.116;2023-09-30T11:53:15;8.32;;;4.00;;
65535;SDS011;52145;49.342;9.116;2023-09-30T11:55:41;8.57;;;4.20;;
65535;SDS011;52145;49.342;9.116;2023-09-30T11:58:07;9.10;;;3.97;;
65535;SDS011;52145;49.342;9.116;2023-09-30T12:00:34;11.35;;;4.53;;
65535;SDS011;52145;49.342;9.116;2023-09-30T12:03:00;8.70;;;3.63;;
65535;SDS011;52145;49.342;9.116;2023-09-30T12:05:27;9.48;;;4.78;;
65535;SDS011;52145;49.342;9.116;2023-09-30T12:07:54;7.57;;;4.00;;
65535;SDS011;52145;49.342;9.116;2023-09-30T12:10:20;10.13;;;4.70;;
65535;SDS011;52145;49.342;9.116;2023-09-30T12:12:45;10.30;;;4.13;;
65535;SDS011;52145;49.342;9.116;2023-09-30T12:15:12;8.38;;;4.18;;
65535;SDS011;52145;49.342;9.116;2023-09-30T12:17:38;8.98;;;4.00;;
65535;SDS011;52145;49.342;9.116;2023-09-30T12:20:04;9.30;;;4.22;;
65535;SDS011;52145;49.342;9.116;2023-09-30T12:22:31;7.43;;;3.97;;
65535;SDS011;52145;49.342;9.116;2023-09-30T12:24:57;7.78;;;4.18;;
65535;SDS011;52145;49.342;9.116;2023-09-30T12:27:25;8.32;;;4.38;;
65535;SDS011;52145;49.342;9.116;2023-09-30T12:29:51;9.10;;;4.85;;
65535;SDS011;52145;49.342;9.116;2023-09-30T12:32:17;9.60;;;4.57;;
65535;SDS011;52145;49.342;9.116;2023-09-30T12:34:43;10.43;;;4.75;;
65535;SDS011;52145;49.342;9.116;2023-09-30T12:37:09;8.82;;;4.53;;
65535;SDS011;52145;49.342;9.116;2023-09-30T12:39:35;10.82;;;4.82;;
65535;SDS011;52145;49.342;9.116;2023-09-30T12:42:01;8.90;;;4.85;;
65535;SDS011;52145;49.342;9.116;2023-09-30T12:44:33;10.38;;;4.85;;
65535;SDS011;52145;49.342;9.116;2023-09-30T12:47:00;9.63;;;4.93;;
65535;SDS011;52145;49.342;9.116;2023-09-30T12:49:27;9.55;;;4.93;;
65535;SDS011;52145;49.342;9.116;2023-09-30T12:51:53;8.82;;;5.03;;
65535;SDS011;52145;49.342;9.116;2023-09-30T12:54:21;10.05;;;5.05;;
65535;SDS011;52145;49.342;9.116;2023-09-30T12:56:47;9.40;;;5.43;;
65535;SDS011;52145;49.342;9.116;2023-09-30T12:59:13;10.65;;;5.38;;
65535;SDS011;52145;49.342;9.116;2023-09-30T13:01:39;11.93;;;6.63;;
65535;SDS011;52145;49.342;9.116;2023-09-30T13:04:05;11.63;;;5.60;;
65535;SDS011;52145;49.342;9.116;2023-09-30T13:06:33;9.38;;;4.97;;
65535;SDS011;52145;49.342;9.116;2023-09-30T13:09:00;10.52;;;5.10;;
65535;SDS011;52145;49.342;9.116;2023-09-30T13:11:26;8.07;;;4.45;;
65535;SDS011;52145;49.342;9.116;2023-09-30T13:13:52;10.32;;;5.47;;
65535;SDS011;52145;49.342;9.116;2023-09-30T13:16:18;12.35;;;5.88;;
65535;SDS011;52145;49.342;9.116;2023-09-30T13:18:44;10.02;;;5.15;;
65535;SDS011;52145;49.342;9.116;2023-09-30T13:21:10;10.85;;;5.35;;
65535;SDS011;52145;49.342;9.116;2023-09-30T13:23:37;8.43;;;5.10;;
65535;SDS011;52145;49.342;9.116;2023-09-30T13:26:03;11.07;;;5.70;;
65535;SDS011;52145;49.342;9.116;2023-09-30T13:28:29;13.48;;;5.90;;
65535;SDS011;52145;49.342;9.116;2023-09-30T13:30:55;12.15;;;5.97;;
65535;SDS011;52145;49.342;9.116;2023-09-30T13:33:21;12.25;;;6.43;;
65535;SDS011;52145;49.342;9.116;2023-09-30T13:35:47;11.57;;;5.72;;
65535;SDS011;52145;49.342;9.116;2023-09-30T13:38:13;13.07;;;6.43;;
65535;SDS011;52145;49.342;9.116;2023-09-30T13:40:41;10.88;;;5.68;;
65535;SDS011;52145;49.342;9.116;2023-09-30T13:43:06;10.20;;;5.90;;
65535;SDS011;52145;49.342;9.116;2023-09-30T13:45:32;12.70;;;6.35;;
65535;SDS011;52145;49.342;9.116;2023-09-30T13:47:59;12.30;;;6.57;;
65535;SDS011;52145;49.342;9.116;2023-09-30T13:50:25;12.48;;;6.60;;
65535;SDS011;52145;49.342;9.116;2023-09-30T13:52:51;12.70;;;5.72;;
65535;SDS011;52145;49.342;9.116;2023-09-30T13:55:17;11.93;;;5.53;;
65535;SDS011;52145;49.342;9.116;2023-09-30T13:57:47;11.82;;;5.65;;
65535;SDS011;52145;49.342;9.116;2023-09-30T14:00:13;13.25;;;6.45;;
65535;SDS011;52145;49.342;9.116;2023-09-30T14:02:41;11.57;;;6.43;;
65535;SDS011;52145;49.342;9.116;2023-09-30T14:05:08;12.23;;;6.28;;
65535;SDS011;52145;49.342;9.116;2023-09-30T14:07:34;10.80;;;5.25;;
65535;SDS011;52145;49.342;9.116;2023-09-30T14:10:00;11.05;;;5.72;;
65535;SDS011;52145;49.342;9.116;2023-09-30T14:12:26;13.52;;;6.05;;
65535;SDS011;52145;49.342;9.116;2023-09-30T14:14:52;13.95;;;6.30;;
65535;SDS011;52145;49.342;9.116;2023-09-30T14:17:18;10.95;;;5.63;;
65535;SDS011;52145;49.342;9.116;2023-09-30T14:19:44;13.88;;;6.45;;
65535;SDS011;52145;49.342;9.116;2023-09-30T14:22:10;13.90;;;6.22;;
65535;SDS011;52145;49.342;9.116;2023-09-30T14:24:37;14.70;;;6.72;;
65535;SDS011;52145;49.342;9.116;2023-09-30T14:27:03;13.13;;;6.90;;
65535;SDS011;52145;49.342;9.116;2023-09-30T14:29:32;14.25;;;6.10;;
65535;SDS011;52145;49.342;9.116;2023-09-30T14:31:58;12.25;;;6.95;;
65535;SDS011;52145;49.342;9.116;2023-09-30T14:34:24;13.27;;;6.93;;
65535;SDS011;52145;49.342;9.116;2023-09-30T14:36:51;13.73;;;6.35;;
65535;SDS011;52145;49.342;9.116;2023-09-30T14:39:17;13.70;;;6.65;;
65535;SDS011;52145;49.342;9.116;2023-09-30T14:41:43;11.35;;;5.60;;
65535;SDS011;52145;49.342;9.116;2023-09-30T14:44:10;14.00;;;6.65;;
65535;SDS011;52145;49.342;9.116;2023-09-30T14:46:37;14.85;;;6.65;;
65535;SDS011;52145;49.342;9.116;2023-09-30T14:49:03;15.98;;;7.22;;
65535;SDS011;52145;49.342;9.116;2023-09-30T14:51:31;11.48;;;6.80;;
65535;SDS011;52145;49.342;9.116;2023-09-30T14:53:57;11.63;;;6.43;;
65535;SDS011;52145;49.342;9.116;2023-09-30T14:56:23;12.55;;;6.32;;
65535;SDS011;52145;49.342;9.116;2023-09-30T14:58:49;11.95;;;6.03;;
65535;SDS011;52145;49.342;9.116;2023-09-30T15:01:15;13.07;;;6.38;;
65535;SDS011;52145;49.342;9.116;2023-09-30T15:03:41;12.07;;;6.45;;
65535;SDS011;52145;49.342;9.116;2023-09-30T15:06:08;10.40;;;6.00;;
65535;SDS011;52145;49.342;9.116;2023-09-30T15:08:34;11.48;;;6.43;;
65535;SDS011;52145;49.342;9.116;2023-09-30T15:11:01;11.75;;;6.75;;
65535;SDS011;52145;49.342;9.116;2023-09-30T15:13:28;11.00;;;5.97;;
65535;SDS011;52145;49.342;9.116;2023-09-30T15:15:54;11.45;;;6.60;;
65535;SDS011;52145;49.342;9.116;2023-09-30T15:18:20;12.82;;;5.88;;
65535;SDS011;52145;49.342;9.116;2023-09-30T15:20:48;12.27;;;6.40;;
65535;SDS011;52145;49.342;9.116;2023-09-30T15:23:14;12.88;;;6.55;;
65535;SDS011;52145;49.342;9.116;2023-09-30T15:25:41;13.70;;;6.65;;
65535;SDS011;52145;49.342;9.116;2023-09-30T15:28:07;12.43;;;6.95;;
65535;SDS011;52145;49.342;9.116;2023-09-30T15:30:33;14.52;;;6.88;;
65535;SDS011;52145;49.342;9.116;2023-09-30T15:33:00;11.77;;;6.35;;
65535;SDS011;52145;49.342;9.116;2023-09-30T15:35:27;10.88;;;5.28;;
65535;SDS011;52145;49.342;9.116;2023-09-30T15:37:53;13.13;;;6.25;;
65535;SDS011;52145;49.342;9.116;2023-09-30T15:40:19;12.50;;;5.78;;
65535;SDS011;52145;49.342;9.116;2023-09-30T15:42:45;13.25;;;6.15;;
65535;SDS011;52145;49.342;9.116;2023-09-30T15:45:11;10.70;;;5.78;;
65535;SDS011;52145;49.342;9.116;2023-09-30T15:47:37;10.68;;;5.63;;
65535;SDS011;52145;49.342;9.116;2023-09-30T15:50:04;14.27;;;6.55;;
65535;SDS011;52145;49.342;9.116;2023-09-30T15:52:30;12.63;;;6.07;;
65535;SDS011;52145;49.342;9.116;2023-09-30T15:54:56;12.23;;;6.13;;
65535;SDS011;52145;49.342;9.116;2023-09-30T15:57:22;11.73;;;5.55;;
65535;SDS011;52145;49.342;9.116;2023-09-30T15:59:48;12.60;;;6.55;;
65535;SDS011;52145;49.342;9.116;2023-09-30T16:02:15;14.60;;;6.40;;
65535;SDS011;52145;49.342;9.116;2023-09-30T16:04:42;13.18;;;6.45;;
65535;SDS011;52145;49.342;9.116;2023-09-30T16:07:08;14.60;;;6.15;;
65535;SDS011;52145;49.342;9.116;2023-09-30T16:09:36;11.38;;;5.72;;
65535;SDS011;52145;49.342;9.116;2023-09-30T16:12:02;11.02;;;5.57;;
65535;SDS011;52145;49.342;9.116;2023-09-30T16:14:28;12.88;;;5.47;;
65535;SDS011;52145;49.342;9.116;2023-09-30T16:16:54;12.88;;;5.93;;
65535;SDS011;52145;49.342;9.116;2023-09-30T16:19:21;13.60;;;6.60;;
65535;SDS011;52145;49.342;9.116;2023-09-30T16:21:47;12.65;;;6.15;;
65535;SDS011;52145;49.342;9.116;2023-09-30T16:24:13;14.35;;;6.13;;
65535;SDS011;52145;49.342;9.116;2023-09-30T16:26:39;12.95;;;6.18;;
65535;SDS011;52145;49.342;9.116;2023-09-30T16:29:05;12.93;;;6.80;;
65535;SDS011;52145;49.342;9.116;2023-09-30T16:31:31;14.25;;;6.20;;
65535;SDS011;52145;49.342;9.116;2023-09-30T16:34:00;12.80;;;6.43;;
65535;SDS011;52145;49.342;9.116;2023-09-30T16:36:26;16.50;;;6.82;;
65535;SDS011;52145;49.342;9.116;2023-09-30T16:38:53;12.25;;;5.85;;
65535;SDS011;52145;49.342;9.116;2023-09-30T16:41:20;12.43;;;5.55;;
65535;SDS011;52145;49.342;9.116;2023-09-30T16:43:48;12.30;;;5.72;;
65535;SDS011;52145;49.342;9.116;2023-09-30T16:46:14;13.38;;;5.50;;
65535;SDS011;52145;49.342;9.116;2023-09-30T16:48:40;12.57;;;6.75;;
65535;SDS011;52145;49.342;9.116;2023-09-30T16:51:09;15.80;;;6.32;;
65535;SDS011;52145;49.342;9.116;2023-09-30T16:53:35;12.98;;;5.90;;
65535;SDS011;52145;49.342;9.116;2023-09-30T16:56:03;13.23;;;6.75;;
65535;SDS011;52145;49.342;9.116;2023-09-30T16:58:29;13.73;;;6.47;;
65535;SDS011;52145;49.342;9.116;2023-09-30T17:00:56;11.43;;;6.20;;
65535;SDS011;52145;49.342;9.116;2023-09-30T17:03:22;13.43;;;5.97;;
65535;SDS011;52145;49.342;9.116;2023-09-30T17:05:48;13.88;;;7.00;;
65535;SDS011;52145;49.342;9.116;2023-09-30T17:08:14;14.15;;;6.30;;
65535;SDS011;52145;49.342;9.116;2023-09-30T17:10:40;11.88;;;6.30;;
65535;SDS011;52145;49.342;9.116;2023-09-30T17:13:06;14.38;;;6.38;;
65535;SDS011;52145;49.342;9.116;2023-09-30T17:15:32;15.70;;;7.22;;
65535;SDS011;52145;49.342;9.116;2023-09-30T17:18:01;11.40;;;5.72;;
65535;SDS011;52145;49.342;9.116;2023-09-30T17:20:28;12.73;;;6.30;;
65535;SDS011;52145;49.342;9.116;2023-09-30T17:22:54;14.18;;;6.97;;
65535;SDS011;52145;49.342;9.116;2023-09-30T17:25:20;16.10;;;7.00;;
65535;SDS011;52145;49.342;9.116;2023-09-30T17:27:47;11.85;;;6.18;;
65535;SDS011;52145;49.342;9.116;2023-09-30T17:30:13;15.85;;;5.80;;
65535;SDS011;52145;49.342;9.116;2023-09-30T17:32:39;13.88;;;6.47;;
65535;SDS011;52145;49.342;9.116;2023-09-30T17:35:05;11.30;;;5.93;;
65535;SDS011;52145;49.342;9.116;2023-09-30T17:37:31;12.30;;;6.35;;
65535;SDS011;52145;49.342;9.116;2023-09-30T17:39:57;13.40;;;6.40;;
65535;SDS011;52145;49.342;9.116;2023-09-30T17:42:23;11.52;;;6.35;;
65535;SDS011;52145;49.342;9.116;2023-09-30T17:44:49;14.73;;;6.85;;
65535;SDS011;52145;49.342;9.116;2023-09-30T17:47:16;15.63;;;6.47;;
65535;SDS011;52145;49.342;9.116;2023-09-30T17:49:43;11.93;;;6.38;;
65535;SDS011;52145;49.342;9.116;2023-09-30T17:52:09;13.68;;;6.28;;
65535;SDS011;52145;49.342;9.116;2023-09-30T17:54:35;12.88;;;6.72;;
65535;SDS011;52145;49.342;9.116;2023-09-30T17:57:01;10.80;;;5.85;;
65535;SDS011;52145;49.342;9.116;2023-09-30T17:59:26;13.95;;;6.00;;
65535;SDS011;52145;49.342;9.116;2023-09-30T18:01:52;13.80;;;6.57;;
65535;SDS011;52145;49.342;9.116;2023-09-30T18:04:18;11.65;;;6.22;;
65535;SDS011;52145;49.342;9.116;2023-09-30T18:06:44;11.40;;;6.43;;
65535;SDS011;52145;49.342;9.116;2023-09-30T18:09:10;13.55;;;7.00;;
65535;SDS011;52145;49.342;9.116;2023-09-30T18:11:37;13.98;;;6.97;;
65535;SDS011;52145;49.342;9.116;2023-09-30T18:14:04;12.48;;;6.47;;
65535;SDS011;52145;49.342;9.116;2023-09-30T18:16:31;14.98;;;6.53;;
65535;SDS011;52145;49.342;9.116;2023-09-30T18:18:57;13.43;;;6.80;;
65535;SDS011;52145;49.342;9.116;2023-09-30T18:21:23;13.10;;;6.50;;
65535;SDS011;52145;49.342;9.116;2023-09-30T18:23:49;11.18;;;5.78;;
65535;SDS011;52145;49.342;9.116;2023-09-30T18:26:15;10.88;;;6.28;;
65535;SDS011;52145;49.342;9.116;2023-09-30T18:28:41;14.40;;;7.00;;
65535;SDS011;52145;49.342;9.116;2023-09-30T18:31:08;17.73;;;6.95;;
65535;SDS011;52145;49.342;9.116;2023-09-30T18:33:36;12.20;;;5.72;;
65535;SDS011;52145;49.342;9.116;2023-09-30T18:36:02;13.73;;;6.50;;
65535;SDS011;52145;49.342;9.116;2023-09-30T18:38:28;14.30;;;6.25;;
65535;SDS011;52145;49.342;9.116;2023-09-30T18:40:54;12.80;;;6.10;;
65535;SDS011;52145;49.342;9.116;2023-09-30T18:43:20;11.48;;;5.93;;
65535;SDS011;52145;49.342;9.116;2023-09-30T18:45:49;15.65;;;6.82;;
65535;SDS011;52145;49.342;9.116;2023-09-30T18:48:15;13.75;;;6.40;;
65535;SDS011;52145;49.342;9.116;2023-09-30T18:53:07;14.40;;;6.35;;
65535;SDS011;52145;49.342;9.116;2023-09-30T18:55:34;12.77;;;6.60;;
65535;SDS011;52145;49.342;9.116;2023-09-30T18:58:00;12.75;;;6.40;;
65535;SDS011;52145;49.342;9.116;2023-09-30T19:00:26;13.95;;;6.18;;
65535;SDS011;52145;49.342;9.116;2023-09-30T19:02:52;14.32;;;6.03;;
65535;SDS011;52145;49.342;9.116;2023-09-30T19:05:18;13.23;;;6.38;;
65535;SDS011;52145;49.342;9.116;2023-09-30T19:07:44;12.63;;;6.65;;
65535;SDS011;52145;49.342;9.116;2023-09-30T19:10:10;13.50;;;6.40;;
65535;SDS011;52145;49.342;9.116;2023-09-30T19:12:36;14.70;;;6.07;;
65535;SDS011;52145;49.342;9.116;2023-09-30T19:15:02;10.90;;;6.05;;
65535;SDS011;52145;49.342;9.116;2023-09-30T19:17:28;11.30;;;6.20;;
65535;SDS011;52145;49.342;9.116;2023-09-30T19:19:55;11.98;;;6.45;;
65535;SDS011;52145;49.342;9.116;2023-09-30T19:22:22;13.60;;;6.57;;
65535;SDS011;52145;49.342;9.116;2023-09-30T19:24:48;12.93;;;6.07;;
65535;SDS011;52145;49.342;9.116;2023-09-30T19:27:14;13.40;;;6.35;;
65535;SDS011;52145;49.342;9.116;2023-09-30T19:29:40;16.42;;;7.05;;
65535;SDS011;52145;49.342;9.116;2023-09-30T19:32:06;13.30;;;6.32;;
65535;SDS011;52145;49.342;9.116;2023-09-30T19:34:34;15.32;;;7.10;;
65535;SDS011;52145;49.342;9.116;2023-09-30T19:37:00;12.68;;;6.28;;
65535;SDS011;52145;49.342;9.116;2023-09-30T19:39:27;12.65;;;5.72;;
65535;SDS011;52145;49.342;9.116;2023-09-30T19:41:54;12.77;;;6.60;;
65535;SDS011;52145;49.342;9.116;2023-09-30T19:44:19;13.52;;;6.07;;
65535;SDS011;52145;49.342;9.116;2023-09-30T19:46:45;12.57;;;5.97;;
65535;SDS011;52145;49.342;9.116;2023-09-30T19:49:12;14.60;;;6.18;;
65535;SDS011;52145;49.342;9.116;2023-09-30T19:51:41;12.35;;;6.93;;
65535;SDS011;52145;49.342;9.116;2023-09-30T19:54:08;14.88;;;6.30;;
65535;SDS011;52145;49.342;9.116;2023-09-30T19:56:35;14.23;;;6.40;;
65535;SDS011;52145;49.342;9.116;2023-09-30T19:59:01;13.82;;;6.43;;
65535;SDS011;52145;49.342;9.116;2023-09-30T20:01:28;11.15;;;6.35;;
65535;SDS011;52145;49.342;9.116;2023-09-30T20:03:54;11.52;;;5.68;;
65535;SDS011;52145;49.342;9.116;2023-09-30T20:06:21;11.38;;;5.93;;
65535;SDS011;52145;49.342;9.116;2023-09-30T20:08:48;11.95;;;5.20;;
65535;SDS011;52145;49.342;9.116;2023-09-30T20:11:21;14.13;;;6.28;;
65535;SDS011;52145;49.342;9.116;2023-09-30T20:13:51;12.95;;;6.70;;
65535;SDS011;52145;49.342;9.116;2023-09-30T20:16:18;11.20;;;6.30;;
65535;SDS011;52145;49.342;9.116;2023-09-30T20:18:44;14.02;;;6.20;;
65535;SDS011;52145;49.342;9.116;2023-09-30T20:21:10;11.45;;;6.78;;
65535;SDS011;52145;49.342;9.116;2023-09-30T20:23:38;11.45;;;5.85;;
65535;SDS011;52145;49.342;9.116;2023-09-30T20:26:04;12.20;;;6.20;;
65535;SDS011;52145;49.342;9.116;2023-09-30T20:28:32;11.25;;;5.90;;
65535;SDS011;52145;49.342;9.116;2023-09-30T20:30:58;10.02;;;6.28;;
65535;SDS011;52145;49.342;9.116;2023-09-30T20:33:26;14.52;;;5.60;;
65535;SDS011;52145;49.342;9.116;2023-09-30T20:35:51;14.70;;;5.80;;
65535;SDS011;52145;49.342;9.116;2023-09-30T20:38:18;11.35;;;5.90;;
65535;SDS011;52145;49.342;9.116;2023-09-30T20:40:44;12.70;;;6.35;;
65535;SDS011;52145;49.342;9.116;2023-09-30T20:43:10;11.85;;;6.05;;
65535;SDS011;52145;49.342;9.116;2023-09-30T20:45:36;11.85;;;6.30;;
65535;SDS011;52145;49.342;9.116;2023-09-30T20:48:03;11.80;;;6.07;;
65535;SDS011;52145;49.342;9.116;2023-09-30T20:50:29;13.00;;;6.57;;
65535;SDS011;52145;49.342;9.116;2023-09-30T20:52:55;10.95;;;6.28;;
65535;SDS011;52145;49.342;9.116;2023-09-30T20:55:21;14.15;;;6.15;;
65535;SDS011;52145;49.342;9.116;2023-09-30T20:57:47;12.32;;;6.10;;
65535;SDS011;52145;49.342;9.116;2023-09-30T21:00:13;13.20;;;5.95;;
65535;SDS011;52145;49.342;9.116;2023-09-30T21:02:39;12.13;;;5.57;;
65535;SDS011;52145;49.342;9.116;2023-09-30T21:05:06;11.10;;;6.00;;
65535;SDS011;52145;49.342;9.116;2023-09-30T21:07:32;10.80;;;5.28;;
65535;SDS011;52145;49.342;9.116;2023-09-30T21:09:58;10.90;;;5.95;;
65535;SDS011;52145;49.342;9.116;2023-09-30T21:12:24;11.32;;;5.63;;
65535;SDS011;52145;49.342;9.116;2023-09-30T21:14:53;14.00;;;6.53;;
65535;SDS011;52145;49.342;9.116;2023-09-30T21:17:19;12.15;;;6.22;;
65535;SDS011;52145;49.342;9.116;2023-09-30T21:19:46;11.20;;;6.18;;
65535;SDS011;52145;49.342;9.116;2023-09-30T21:22:12;11.82;;;6.00;;
65535;SDS011;52145;49.342;9.116;2023-09-30T21:24:38;11.52;;;6.40;;
65535;SDS011;52145;49.342;9.116;2023-09-30T21:27:04;11.75;;;6.22;;
65535;SDS011;52145;49.342;9.116;2023-09-30T21:29:30;10.85;;;5.70;;
65535;SDS011;52145;49.342;9.116;2023-09-30T21:31:56;11.93;;;6.15;;
65535;SDS011;52145;49.342;9.116;2023-09-30T21:34:21;13.82;;;5.68;;
65535;SDS011;52145;49.342;9.116;2023-09-30T21:36:47;10.55;;;5.63;;
65535;SDS011;52145;49.342;9.116;2023-09-30T21:39:16;11.80;;;6.28;;
65535;SDS011;52145;49.342;9.116;2023-09-30T21:41:44;10.45;;;5.25;;
65535;SDS011;52145;49.342;9.116;2023-09-30T21:44:10;12.40;;;5.57;;
65535;SDS011;52145;49.342;9.116;2023-09-30T21:46:37;12.23;;;5.45;;
65535;SDS011;52145;49.342;9.116;2023-09-30T21:49:03;8.57;;;5.25;;
65535;SDS011;52145;49.342;9.116;2023-09-30T21:51:29;9.65;;;5.32;;
